sensor_id;sensor_type;location;lat;lon;timestamp;temperature;humidity
18581;DHT22;9420;50.876;7.012;2022-12-29T00:01:41;10.80;99.90
18581;DHT22;9420;50.876;7.012;2022-12-29T00:04:12;10.70;99.90
18581;DHT22;9420;50.876;7.012;2022-12-29T00:06:42;10.70;99.90
18581;DHT22;9420;50.876;7.012;2022-12-29T00:09:10;10.60;99.90
18581;DHT22;9420;50.876;7.012;2022-12-29T00:11:38;10.70;99.90
18581;DHT22;9420;50.876;7.012;2022-12-29T00:14:05;10.60;99.90
18581;DHT22;9420;50.876;7.012;2022-12-29T00:16:49;10.60;99.90
18581;DHT22;9420;50.876;7.012;2022-12-29T00:19:17;10.70;99.90
18581;DHT22;9420;50.876;7.012;2022-12-29T00:22:02;10.70;99.90
18581;DHT22;9420;50.876;7.012;2022-12-29T00:24:47;10.70;99.90
18581;DHT22;9420;50.876;7.012;2022-12-29T00:27:43;10.70;99.90
18581;DHT22;9420;50.876;7.012;2022-12-29T00:30:28;10.80;99.90
18581;DHT22;9420;50.876;7.012;2022-12-29T00:33:14;10.90;99.90
18581;DHT22;9420;50.876;7.012;2022-12-29T00:36:02;10.90;99.90
18581;DHT22;9420;50.876;7.012;2022-12-29T00:38:37;11.00;99.90
18581;DHT22;9420;50.876;7.012;2022-12-29T00:41:24;11.00;99.90
18581;DHT22;9420;50.876;7.012;2022-12-29T00:44:11;11.00;99.90
18581;DHT22;9420;50.876;7.012;2022-12-29T00:46:40;11.10;99.90
18581;DHT22;9420;50.876;7.012;2022-12-29T00:49:10;11.10;99.90
18581;DHT22;9420;50.876;7.012;2022-12-29T00:51:59;11.20;99.90
18581;DHT22;9420;50.876;7.012;2022-12-29T00:54:31;11.20;99.90
18581;DHT22;9420;50.876;7.012;2022-12-29T00:56:59;11.20;99.90
18581;DHT22;9420;50.876;7.012;2022-12-29T00:59:27;11.20;99.90
18581;DHT22;9420;50.876;7.012;2022-12-29T01:01:55;11.20;99.90
18581;DHT22;9420;50.876;7.012;2022-12-29T01:04:24;11.20;99.90
18581;DHT22;9420;50.876;7.012;2022-12-29T01:06:52;11.30;99.90
18581;DHT22;9420;50.876;7.012;2022-12-29T01:09:20;11.20;99.90
18581;DHT22;9420;50.876;7.012;2022-12-29T01:12:11;11.10;99.90
18581;DHT22;9420;50.876;7.012;2022-12-29T01:14:38;11.20;99.90
18581;DHT22;9420;50.876;7.012;2022-12-29T01:17:05;11.10;99.90
18581;DHT22;9420;50.876;7.012;2022-12-29T01:19:32;11.20;99.90
18581;DHT22;9420;50.876;7.012;2022-12-29T01:21:59;11.50;99.90
18581;DHT22;9420;50.876;7.012;2022-12-29T01:24:27;11.70;99.90
18581;DHT22;9420;50.876;7.012;2022-12-29T01:26:54;11.90;99.90
18581;DHT22;9420;50.876;7.012;2022-12-29T01:29:22;11.90;99.90
18581;DHT22;9420;50.876;7.012;2022-12-29T01:31:49;12.00;99.90
18581;DHT22;9420;50.876;7.012;2022-12-29T01:34:16;12.10;99.90
18581;DHT22;9420;50.876;7.012;2022-12-29T01:36:44;12.30;99.90
18581;DHT22;9420;50.876;7.012;2022-12-29T01:39:11;12.50;99.90
18581;DHT22;9420;50.876;7.012;2022-12-29T01:41:38;12.50;99.90
18581;DHT22;9420;50.876;7.012;2022-12-29T01:47:32;12.50;99.90
18581;DHT22;9420;50.876;7.012;2022-12-29T01:50:06;12.70;99.90
18581;DHT22;9420;50.876;7.012;2022-12-29T01:52:38;12.70;99.90
18581;DHT22;9420;50.876;7.012;2022-12-29T01:55:10;12.80;99.90
18581;DHT22;9420;50.876;7.012;2022-12-29T01:57:42;12.80;99.90
18581;DHT22;9420;50.876;7.012;2022-12-29T02:00:15;12.70;99.90
18581;DHT22;9420;50.876;7.012;2022-12-29T02:02:44;12.80;99.90
18581;DHT22;9420;50.876;7.012;2022-12-29T02:05:20;12.70;99.90
18581;DHT22;9420;50.876;7.012;2022-12-29T02:07:52;12.70;99.90
18581;DHT22;9420;50.876;7.012;2022-12-29T02:13:01;12.60;99.90
18581;DHT22;9420;50.876;7.012;2022-12-29T02:15:37;12.50;99.90
18581;DHT22;9420;50.876;7.012;2022-12-29T02:18:28;12.80;99.90
18581;DHT22;9420;50.876;7.012;2022-12-29T02:24:56;12.50;99.90
18581;DHT22;9420;50.876;7.012;2022-12-29T02:31:11;12.40;99.90
18581;DHT22;9420;50.876;7.012;2022-12-29T02:33:52;12.30;99.90
18581;DHT22;9420;50.876;7.012;2022-12-29T02:36:36;12.30;99.90
18581;DHT22;9420;50.876;7.012;2022-12-29T02:39:20;12.20;99.90
18581;DHT22;9420;50.876;7.012;2022-12-29T02:41:58;12.30;99.90
18581;DHT22;9420;50.876;7.012;2022-12-29T02:44:38;12.30;99.90
18581;DHT22;9420;50.876;7.012;2022-12-29T02:47:23;12.10;99.90
18581;DHT22;9420;50.876;7.012;2022-12-29T02:50:01;12.10;99.90
18581;DHT22;9420;50.876;7.012;2022-12-29T02:52:36;12.10;99.90
18581;DHT22;9420;50.876;7.012;2022-12-29T02:55:10;12.10;99.90
18581;DHT22;9420;50.876;7.012;2022-12-29T02:57:37;12.20;99.90
18581;DHT22;9420;50.876;7.012;2022-12-29T03:00:06;12.10;99.90
18581;DHT22;9420;50.876;7.012;2022-12-29T03:03:06;12.10;99.90
18581;DHT22;9420;50.876;7.012;2022-12-29T03:05:59;12.00;99.90
18581;DHT22;9420;50.876;7.012;2022-12-29T03:08:43;12.00;99.90
18581;DHT22;9420;50.876;7.012;2022-12-29T03:11:15;12.00;99.90
18581;DHT22;9420;50.876;7.012;2022-12-29T03:14:03;12.00;99.90
18581;DHT22;9420;50.876;7.012;2022-12-29T03:16:57;12.00;99.90
18581;DHT22;9420;50.876;7.012;2022-12-29T03:19:35;12.00;99.90
18581;DHT22;9420;50.876;7.012;2022-12-29T03:22:06;12.00;99.90
18581;DHT22;9420;50.876;7.012;2022-12-29T03:24:56;12.00;99.90
18581;DHT22;9420;50.876;7.012;2022-12-29T03:27:29;12.10;99.90
18581;DHT22;9420;50.876;7.012;2022-12-29T03:30:03;12.10;99.90
18581;DHT22;9420;50.876;7.012;2022-12-29T03:32:34;12.00;99.90
18581;DHT22;9420;50.876;7.012;2022-12-29T03:35:08;12.00;99.90
18581;DHT22;9420;50.876;7.012;2022-12-29T03:37:41;12.10;99.90
18581;DHT22;9420;50.876;7.012;2022-12-29T03:40:16;12.20;99.90
18581;DHT22;9420;50.876;7.012;2022-12-29T03:42:45;12.20;99.90
18581;DHT22;9420;50.876;7.012;2022-12-29T03:45:14;12.30;99.90
18581;DHT22;9420;50.876;7.012;2022-12-29T03:47:46;12.30;99.90
18581;DHT22;9420;50.876;7.012;2022-12-29T03:50:15;12.40;99.90
18581;DHT22;9420;50.876;7.012;2022-12-29T03:52:42;12.30;99.90
18581;DHT22;9420;50.876;7.012;2022-12-29T03:55:09;12.20;99.90
18581;DHT22;9420;50.876;7.012;2022-12-29T03:57:37;12.20;99.90
18581;DHT22;9420;50.876;7.012;2022-12-29T04:00:05;12.20;99.90
18581;DHT22;9420;50.876;7.012;2022-12-29T04:02:33;12.10;99.90
18581;DHT22;9420;50.876;7.012;2022-12-29T04:05:00;12.10;99.90
18581;DHT22;9420;50.876;7.012;2022-12-29T04:07:28;12.00;99.90
18581;DHT22;9420;50.876;7.012;2022-12-29T04:09:55;12.10;99.90
18581;DHT22;9420;50.876;7.012;2022-12-29T04:12:22;12.10;99.90
18581;DHT22;9420;50.876;7.012;2022-12-29T04:14:49;12.30;99.90
18581;DHT22;9420;50.876;7.012;2022-12-29T04:17:16;12.40;99.90
18581;DHT22;9420;50.876;7.012;2022-12-29T04:19:44;12.20;99.90
18581;DHT22;9420;50.876;7.012;2022-12-29T04:22:11;12.10;99.90
18581;DHT22;9420;50.876;7.012;2022-12-29T04:24:40;12.30;99.90
18581;DHT22;9420;50.876;7.012;2022-12-29T04:27:07;12.40;99.90
18581;DHT22;9420;50.876;7.012;2022-12-29T04:29:34;12.50;99.90
18581;DHT22;9420;50.876;7.012;2022-12-29T04:32:01;12.40;99.90
18581;DHT22;9420;50.876;7.012;2022-12-29T04:34:28;12.50;99.90
18581;DHT22;9420;50.876;7.012;2022-12-29T04:36:55;12.40;99.90
18581;DHT22;9420;50.876;7.012;2022-12-29T04:39:22;12.50;99.90
18581;DHT22;9420;50.876;7.012;2022-12-29T04:41:50;12.50;99.90
18581;DHT22;9420;50.876;7.012;2022-12-29T04:44:17;12.40;99.90
18581;DHT22;9420;50.876;7.012;2022-12-29T04:46:44;12.40;99.90
18581;DHT22;9420;50.876;7.012;2022-12-29T04:49:11;12.50;99.90
18581;DHT22;9420;50.876;7.012;2022-12-29T04:51:38;12.50;99.90
18581;DHT22;9420;50.876;7.012;2022-12-29T04:54:05;12.60;99.90
18581;DHT22;9420;50.876;7.012;2022-12-29T04:56:32;12.70;99.90
18581;DHT22;9420;50.876;7.012;2022-12-29T04:59:01;12.70;99.90
18581;DHT22;9420;50.876;7.012;2022-12-29T05:01:28;12.90;99.90
18581;DHT22;9420;50.876;7.012;2022-12-29T05:03:55;12.80;99.90
18581;DHT22;9420;50.876;7.012;2022-12-29T05:06:22;12.80;99.90
18581;DHT22;9420;50.876;7.012;2022-12-29T05:08:49;12.90;99.90
18581;DHT22;9420;50.876;7.012;2022-12-29T05:11:16;12.80;99.90
18581;DHT22;9420;50.876;7.012;2022-12-29T05:13:45;13.10;99.90
18581;DHT22;9420;50.876;7.012;2022-12-29T05:16:13;12.90;99.90
18581;DHT22;9420;50.876;7.012;2022-12-29T05:18:40;12.90;99.90
18581;DHT22;9420;50.876;7.012;2022-12-29T05:21:07;12.80;99.90
18581;DHT22;9420;50.876;7.012;2022-12-29T05:23:34;12.90;99.90
18581;DHT22;9420;50.876;7.012;2022-12-29T05:26:01;12.80;99.90
18581;DHT22;9420;50.876;7.012;2022-12-29T05:28:28;12.70;99.90
18581;DHT22;9420;50.876;7.012;2022-12-29T05:30:55;12.70;99.90
18581;DHT22;9420;50.876;7.012;2022-12-29T05:33:24;12.80;99.90
18581;DHT22;9420;50.876;7.012;2022-12-29T05:35:51;12.90;99.90
18581;DHT22;9420;50.876;7.012;2022-12-29T05:38:18;12.80;99.90
18581;DHT22;9420;50.876;7.012;2022-12-29T05:40:45;12.60;99.90
18581;DHT22;9420;50.876;7.012;2022-12-29T05:43:12;12.70;99.90
18581;DHT22;9420;50.876;7.012;2022-12-29T05:45:39;12.70;99.90
18581;DHT22;9420;50.876;7.012;2022-12-29T05:48:06;12.80;99.90
18581;DHT22;9420;50.876;7.012;2022-12-29T05:50:37;12.70;99.90
18581;DHT22;9420;50.876;7.012;2022-12-29T05:53:04;12.60;99.90
18581;DHT22;9420;50.876;7.012;2022-12-29T05:55:31;12.60;99.90
18581;DHT22;9420;50.876;7.012;2022-12-29T05:57:58;12.50;99.90
18581;DHT22;9420;50.876;7.012;2022-12-29T06:00:25;12.60;99.90
18581;DHT22;9420;50.876;7.012;2022-12-29T06:02:52;12.60;99.90
18581;DHT22;9420;50.876;7.012;2022-12-29T06:05:19;12.80;99.90
18581;DHT22;9420;50.876;7.012;2022-12-29T06:07:47;12.90;99.90
18581;DHT22;9420;50.876;7.012;2022-12-29T06:10:14;13.00;99.90
18581;DHT22;9420;50.876;7.012;2022-12-29T06:12:42;12.90;99.90
18581;DHT22;9420;50.876;7.012;2022-12-29T06:15:09;12.90;99.90
18581;DHT22;9420;50.876;7.012;2022-12-29T06:17:42;13.00;99.90
18581;DHT22;9420;50.876;7.012;2022-12-29T06:20:10;12.80;99.90
18581;DHT22;9420;50.876;7.012;2022-12-29T06:22:37;12.70;99.90
18581;DHT22;9420;50.876;7.012;2022-12-29T06:25:06;12.60;99.90
18581;DHT22;9420;50.876;7.012;2022-12-29T06:27:34;12.70;99.90
18581;DHT22;9420;50.876;7.012;2022-12-29T06:30:01;12.60;99.90
18581;DHT22;9420;50.876;7.012;2022-12-29T06:32:28;12.50;99.90
18581;DHT22;9420;50.876;7.012;2022-12-29T06:34:55;12.30;99.90
18581;DHT22;9420;50.876;7.012;2022-12-29T06:37:22;12.40;99.90
18581;DHT22;9420;50.876;7.012;2022-12-29T06:39:49;12.30;99.90
18581;DHT22;9420;50.876;7.012;2022-12-29T06:42:17;12.30;99.90
18581;DHT22;9420;50.876;7.012;2022-12-29T06:44:44;12.40;99.90
18581;DHT22;9420;50.876;7.012;2022-12-29T06:47:12;12.50;99.90
18581;DHT22;9420;50.876;7.012;2022-12-29T06:49:39;12.40;99.90
18581;DHT22;9420;50.876;7.012;2022-12-29T06:52:06;12.50;99.90
18581;DHT22;9420;50.876;7.012;2022-12-29T06:54:33;12.70;99.90
18581;DHT22;9420;50.876;7.012;2022-12-29T06:57:00;12.80;99.90
18581;DHT22;9420;50.876;7.012;2022-12-29T06:59:29;12.70;99.90
18581;DHT22;9420;50.876;7.012;2022-12-29T07:01:56;12.80;99.90
18581;DHT22;9420;50.876;7.012;2022-12-29T07:04:23;12.80;99.90
18581;DHT22;9420;50.876;7.012;2022-12-29T07:06:51;12.70;99.90
18581;DHT22;9420;50.876;7.012;2022-12-29T07:09:18;12.60;99.90
18581;DHT22;9420;50.876;7.012;2022-12-29T07:11:44;12.70;99.90
18581;DHT22;9420;50.876;7.012;2022-12-29T07:14:12;12.60;99.90
18581;DHT22;9420;50.876;7.012;2022-12-29T07:16:40;12.50;99.90
18581;DHT22;9420;50.876;7.012;2022-12-29T07:19:07;12.60;99.90
18581;DHT22;9420;50.876;7.012;2022-12-29T07:21:34;12.60;99.90
18581;DHT22;9420;50.876;7.012;2022-12-29T07:24:01;12.50;99.90
18581;DHT22;9420;50.876;7.012;2022-12-29T07:26:28;12.60;99.90
18581;DHT22;9420;50.876;7.012;2022-12-29T07:28:55;12.50;99.90
18581;DHT22;9420;50.876;7.012;2022-12-29T07:31:23;12.60;99.90
18581;DHT22;9420;50.876;7.012;2022-12-29T07:33:51;12.50;99.90
18581;DHT22;9420;50.876;7.012;2022-12-29T07:36:19;12.50;99.90
18581;DHT22;9420;50.876;7.012;2022-12-29T07:38:46;12.50;99.90
18581;DHT22;9420;50.876;7.012;2022-12-29T07:41:13;12.40;99.90
18581;DHT22;9420;50.876;7.012;2022-12-29T07:43:40;12.40;99.90
18581;DHT22;9420;50.876;7.012;2022-12-29T07:46:07;12.30;99.90
18581;DHT22;9420;50.876;7.012;2022-12-29T07:48:36;12.30;99.90
18581;DHT22;9420;50.876;7.012;2022-12-29T07:51:05;12.20;99.90
18581;DHT22;9420;50.876;7.012;2022-12-29T07:53:33;12.20;99.90
18581;DHT22;9420;50.876;7.012;2022-12-29T07:56:00;12.20;99.90
18581;DHT22;9420;50.876;7.012;2022-12-29T07:58:27;12.10;99.90
18581;DHT22;9420;50.876;7.012;2022-12-29T08:00:54;12.20;99.90
18581;DHT22;9420;50.876;7.012;2022-12-29T08:03:21;12.20;99.90
18581;DHT22;9420;50.876;7.012;2022-12-29T08:05:48;12.20;99.90
18581;DHT22;9420;50.876;7.012;2022-12-29T08:08:17;12.20;99.90
18581;DHT22;9420;50.876;7.012;2022-12-29T08:10:44;12.30;99.90
18581;DHT22;9420;50.876;7.012;2022-12-29T08:13:13;12.20;99.90
18581;DHT22;9420;50.876;7.012;2022-12-29T08:15:40;12.20;99.90
18581;DHT22;9420;50.876;7.012;2022-12-29T08:18:07;12.10;99.90
18581;DHT22;9420;50.876;7.012;2022-12-29T08:20:34;12.10;99.90
18581;DHT22;9420;50.876;7.012;2022-12-29T08:23:01;12.10;99.90
18581;DHT22;9420;50.876;7.012;2022-12-29T08:25:29;12.20;99.90
18581;DHT22;9420;50.876;7.012;2022-12-29T08:27:56;12.20;99.90
18581;DHT22;9420;50.876;7.012;2022-12-29T08:30:23;12.20;99.90
18581;DHT22;9420;50.876;7.012;2022-12-29T08:32:51;12.20;99.90
18581;DHT22;9420;50.876;7.012;2022-12-29T08:35:19;12.20;99.90
18581;DHT22;9420;50.876;7.012;2022-12-29T08:37:46;12.20;99.90
18581;DHT22;9420;50.876;7.012;2022-12-29T08:40:14;12.20;99.90
18581;DHT22;9420;50.876;7.012;2022-12-29T08:42:43;11.90;99.90
18581;DHT22;9420;50.876;7.012;2022-12-29T08:45:10;11.90;99.90
18581;DHT22;9420;50.876;7.012;2022-12-29T08:47:37;12.00;99.90
18581;DHT22;9420;50.876;7.012;2022-12-29T08:50:05;11.70;99.90
18581;DHT22;9420;50.876;7.012;2022-12-29T08:52:33;11.70;99.90
18581;DHT22;9420;50.876;7.012;2022-12-29T08:55:00;11.50;99.90
18581;DHT22;9420;50.876;7.012;2022-12-29T08:57:28;11.40;99.90
18581;DHT22;9420;50.876;7.012;2022-12-29T08:59:57;11.40;99.90
18581;DHT22;9420;50.876;7.012;2022-12-29T09:02:24;11.70;99.90
18581;DHT22;9420;50.876;7.012;2022-12-29T09:04:51;11.80;99.90
18581;DHT22;9420;50.876;7.012;2022-12-29T09:07:20;12.00;99.90
18581;DHT22;9420;50.876;7.012;2022-12-29T09:09:47;12.10;99.90
18581;DHT22;9420;50.876;7.012;2022-12-29T09:12:15;12.20;99.90
18581;DHT22;9420;50.876;7.012;2022-12-29T09:14:43;12.30;99.90
18581;DHT22;9420;50.876;7.012;2022-12-29T09:17:15;12.20;99.90
18581;DHT22;9420;50.876;7.012;2022-12-29T09:20:00;12.20;99.90
18581;DHT22;9420;50.876;7.012;2022-12-29T09:22:28;12.10;99.90
18581;DHT22;9420;50.876;7.012;2022-12-29T09:24:55;12.10;99.90
18581;DHT22;9420;50.876;7.012;2022-12-29T09:27:22;12.20;99.90
18581;DHT22;9420;50.876;7.012;2022-12-29T09:29:49;12.20;99.90
18581;DHT22;9420;50.876;7.012;2022-12-29T09:32:17;12.20;99.90
18581;DHT22;9420;50.876;7.012;2022-12-29T09:34:45;12.20;99.90
18581;DHT22;9420;50.876;7.012;2022-12-29T09:37:12;12.10;99.90
18581;DHT22;9420;50.876;7.012;2022-12-29T09:39:39;12.10;99.90
18581;DHT22;9420;50.876;7.012;2022-12-29T09:42:11;12.20;99.90
18581;DHT22;9420;50.876;7.012;2022-12-29T09:44:52;12.30;99.90
18581;DHT22;9420;50.876;7.012;2022-12-29T09:47:30;12.30;99.90
18581;DHT22;9420;50.876;7.012;2022-12-29T09:50:01;12.30;99.90
18581;DHT22;9420;50.876;7.012;2022-12-29T09:52:34;12.30;99.90
18581;DHT22;9420;50.876;7.012;2022-12-29T09:55:11;12.30;99.90
18581;DHT22;9420;50.876;7.012;2022-12-29T09:57:45;12.30;99.90
18581;DHT22;9420;50.876;7.012;2022-12-29T10:00:17;12.40;99.90
18581;DHT22;9420;50.876;7.012;2022-12-29T10:02:49;12.30;99.90
18581;DHT22;9420;50.876;7.012;2022-12-29T10:05:30;12.30;99.90
18581;DHT22;9420;50.876;7.012;2022-12-29T10:08:16;12.30;99.90
18581;DHT22;9420;50.876;7.012;2022-12-29T10:10:56;12.30;99.90
18581;DHT22;9420;50.876;7.012;2022-12-29T10:13:38;12.30;99.90
18581;DHT22;9420;50.876;7.012;2022-12-29T10:16:22;12.40;99.90
18581;DHT22;9420;50.876;7.012;2022-12-29T10:19:07;12.40;99.90
18581;DHT22;9420;50.876;7.012;2022-12-29T10:21:59;12.40;99.90
18581;DHT22;9420;50.876;7.012;2022-12-29T10:24:38;12.40;99.90
18581;DHT22;9420;50.876;7.012;2022-12-29T10:27:10;12.60;99.90
18581;DHT22;9420;50.876;7.012;2022-12-29T10:29:44;12.70;99.90
18581;DHT22;9420;50.876;7.012;2022-12-29T10:32:24;12.80;99.90
18581;DHT22;9420;50.876;7.012;2022-12-29T10:35:00;12.70;99.90
18581;DHT22;9420;50.876;7.012;2022-12-29T10:37:38;12.70;99.90
18581;DHT22;9420;50.876;7.012;2022-12-29T10:40:16;12.70;99.90
18581;DHT22;9420;50.876;7.012;2022-12-29T10:42:53;12.80;99.90
18581;DHT22;9420;50.876;7.012;2022-12-29T10:45:24;12.90;99.90
18581;DHT22;9420;50.876;7.012;2022-12-29T10:47:59;12.80;99.90
18581;DHT22;9420;50.876;7.012;2022-12-29T10:50:31;12.80;99.90
18581;DHT22;9420;50.876;7.012;2022-12-29T10:53:02;12.70;99.90
18581;DHT22;9420;50.876;7.012;2022-12-29T10:55:35;12.70;99.90
18581;DHT22;9420;50.876;7.012;2022-12-29T10:58:06;12.70;99.90
18581;DHT22;9420;50.876;7.012;2022-12-29T11:00:38;12.80;99.90
18581;DHT22;9420;50.876;7.012;2022-12-29T11:03:26;12.90;99.90
18581;DHT22;9420;50.876;7.012;2022-12-29T11:06:10;13.00;99.90
18581;DHT22;9420;50.876;7.012;2022-12-29T11:08:48;13.10;99.90
18581;DHT22;9420;50.876;7.012;2022-12-29T11:11:24;13.20;99.90
18581;DHT22;9420;50.876;7.012;2022-12-29T11:13:57;13.20;99.90
18581;DHT22;9420;50.876;7.012;2022-12-29T11:16:56;13.30;99.90
18581;DHT22;9420;50.876;7.012;2022-12-29T11:19:29;13.10;99.90
18581;DHT22;9420;50.876;7.012;2022-12-29T11:22:13;13.20;99.90
18581;DHT22;9420;50.876;7.012;2022-12-29T11:24:49;13.30;99.90
18581;DHT22;9420;50.876;7.012;2022-12-29T11:27:25;13.40;99.90
18581;DHT22;9420;50.876;7.012;2022-12-29T11:29:54;13.20;99.90
18581;DHT22;9420;50.876;7.012;2022-12-29T11:32:23;13.20;99.90
18581;DHT22;9420;50.876;7.012;2022-12-29T11:34:51;13.30;99.90
18581;DHT22;9420;50.876;7.012;2022-12-29T11:37:25;13.40;99.90
18581;DHT22;9420;50.876;7.012;2022-12-29T11:39:58;13.40;99.90
18581;DHT22;9420;50.876;7.012;2022-12-29T11:42:35;13.30;99.90
18581;DHT22;9420;50.876;7.012;2022-12-29T11:45:06;13.10;99.90
18581;DHT22;9420;50.876;7.012;2022-12-29T11:47:44;13.00;99.90
18581;DHT22;9420;50.876;7.012;2022-12-29T11:50:17;12.90;99.90
18581;DHT22;9420;50.876;7.012;2022-12-29T11:52:51;12.90;99.90
18581;DHT22;9420;50.876;7.012;2022-12-29T11:55:26;12.80;99.90
18581;DHT22;9420;50.876;7.012;2022-12-29T11:58:00;12.80;99.90
18581;DHT22;9420;50.876;7.012;2022-12-29T12:00:36;12.80;99.90
18581;DHT22;9420;50.876;7.012;2022-12-29T12:03:12;12.70;99.90
18581;DHT22;9420;50.876;7.012;2022-12-29T12:05:46;12.80;99.90
18581;DHT22;9420;50.876;7.012;2022-12-29T12:08:35;12.70;99.90
18581;DHT22;9420;50.876;7.012;2022-12-29T12:11:10;12.70;99.90
18581;DHT22;9420;50.876;7.012;2022-12-29T12:13:46;12.70;99.90
18581;DHT22;9420;50.876;7.012;2022-12-29T12:16:27;12.70;99.90
18581;DHT22;9420;50.876;7.012;2022-12-29T12:19:03;12.60;99.90
18581;DHT22;9420;50.876;7.012;2022-12-29T12:21:43;12.60;99.90
18581;DHT22;9420;50.876;7.012;2022-12-29T12:24:30;12.60;99.90
18581;DHT22;9420;50.876;7.012;2022-12-29T12:27:11;12.60;99.90
18581;DHT22;9420;50.876;7.012;2022-12-29T12:29:50;12.50;99.90
18581;DHT22;9420;50.876;7.012;2022-12-29T12:32:33;12.50;99.90
18581;DHT22;9420;50.876;7.012;2022-12-29T12:35:12;12.50;99.90
18581;DHT22;9420;50.876;7.012;2022-12-29T12:37:55;12.50;99.90
18581;DHT22;9420;50.876;7.012;2022-12-29T12:41:05;12.60;99.90
18581;DHT22;9420;50.876;7.012;2022-12-29T12:43:41;12.60;99.90
18581;DHT22;9420;50.876;7.012;2022-12-29T12:46:31;12.70;99.90
18581;DHT22;9420;50.876;7.012;2022-12-29T12:49:35;12.70;99.90
18581;DHT22;9420;50.876;7.012;2022-12-29T12:52:29;13.00;99.90
18581;DHT22;9420;50.876;7.012;2022-12-29T12:55:22;12.80;99.90
18581;DHT22;9420;50.876;7.012;2022-12-29T12:58:19;12.70;99.90
18581;DHT22;9420;50.876;7.012;2022-12-29T13:01:05;12.50;99.90
18581;DHT22;9420;50.876;7.012;2022-12-29T13:04:00;12.60;99.90
18581;DHT22;9420;50.876;7.012;2022-12-29T13:06:51;13.10;99.90
18581;DHT22;9420;50.876;7.012;2022-12-29T13:09:32;12.90;99.90
18581;DHT22;9420;50.876;7.012;2022-12-29T13:12:22;12.70;99.90
18581;DHT22;9420;50.876;7.012;2022-12-29T13:15:09;12.50;99.90
18581;DHT22;9420;50.876;7.012;2022-12-29T13:17:48;12.40;99.90
18581;DHT22;9420;50.876;7.012;2022-12-29T13:20:29;12.30;99.90
18581;DHT22;9420;50.876;7.012;2022-12-29T13:23:08;12.20;99.90
18581;DHT22;9420;50.876;7.012;2022-12-29T13:25:47;12.10;99.90
18581;DHT22;9420;50.876;7.012;2022-12-29T13:28:28;12.10;99.90
18581;DHT22;9420;50.876;7.012;2022-12-29T13:31:07;12.10;99.90
18581;DHT22;9420;50.876;7.012;2022-12-29T13:33:49;12.10;99.90
18581;DHT22;9420;50.876;7.012;2022-12-29T13:36:29;12.10;99.90
18581;DHT22;9420;50.876;7.012;2022-12-29T13:39:07;12.10;99.90
18581;DHT22;9420;50.876;7.012;2022-12-29T13:41:41;12.10;99.90
18581;DHT22;9420;50.876;7.012;2022-12-29T13:44:19;12.10;99.90
18581;DHT22;9420;50.876;7.012;2022-12-29T13:46:57;12.10;99.90
18581;DHT22;9420;50.876;7.012;2022-12-29T13:49:28;12.10;99.90
18581;DHT22;9420;50.876;7.012;2022-12-29T13:52:08;12.10;99.90
18581;DHT22;9420;50.876;7.012;2022-12-29T13:54:45;12.10;99.90
18581;DHT22;9420;50.876;7.012;2022-12-29T13:57:44;12.00;99.90
18581;DHT22;9420;50.876;7.012;2022-12-29T14:00:21;12.00;99.90
18581;DHT22;9420;50.876;7.012;2022-12-29T14:03:31;12.00;99.90
18581;DHT22;9420;50.876;7.012;2022-12-29T14:06:19;11.90;99.90
18581;DHT22;9420;50.876;7.012;2022-12-29T14:08:57;11.90;99.90
18581;DHT22;9420;50.876;7.012;2022-12-29T14:11:34;11.90;99.90
18581;DHT22;9420;50.876;7.012;2022-12-29T14:14:41;11.90;99.90
18581;DHT22;9420;50.876;7.012;2022-12-29T14:17:09;11.80;99.90
18581;DHT22;9420;50.876;7.012;2022-12-29T14:19:41;11.80;99.90
18581;DHT22;9420;50.876;7.012;2022-12-29T14:22:12;11.80;99.90
18581;DHT22;9420;50.876;7.012;2022-12-29T14:24:42;11.80;99.90
18581;DHT22;9420;50.876;7.012;2022-12-29T14:33:30;10.30;99.90
18581;DHT22;9420;50.876;7.012;2022-12-29T14:36:21;10.10;99.90
18581;DHT22;9420;50.876;7.012;2022-12-29T14:38:52;10.10;99.90
18581;DHT22;9420;50.876;7.012;2022-12-29T14:41:27;10.20;99.90
18581;DHT22;9420;50.876;7.012;2022-12-29T14:44:01;10.30;99.90
18581;DHT22;9420;50.876;7.012;2022-12-29T14:46:47;10.40;99.90
18581;DHT22;9420;50.876;7.012;2022-12-29T14:49:22;10.40;99.90
18581;DHT22;9420;50.876;7.012;2022-12-29T14:51:54;10.40;99.90
18581;DHT22;9420;50.876;7.012;2022-12-29T14:54:46;10.40;99.90
18581;DHT22;9420;50.876;7.012;2022-12-29T14:57:34;10.40;99.90
18581;DHT22;9420;50.876;7.012;2022-12-29T15:00:15;10.50;99.90
18581;DHT22;9420;50.876;7.012;2022-12-29T15:02:49;10.60;99.90
18581;DHT22;9420;50.876;7.012;2022-12-29T15:05:27;10.60;99.90
18581;DHT22;9420;50.876;7.012;2022-12-29T15:08:00;10.60;99.90
18581;DHT22;9420;50.876;7.012;2022-12-29T15:10:36;10.60;99.90
18581;DHT22;9420;50.876;7.012;2022-12-29T15:13:16;10.60;99.90
18581;DHT22;9420;50.876;7.012;2022-12-29T15:15:45;10.70;99.90
18581;DHT22;9420;50.876;7.012;2022-12-29T15:18:15;10.60;99.90
18581;DHT22;9420;50.876;7.012;2022-12-29T15:20:50;10.60;99.90
18581;DHT22;9420;50.876;7.012;2022-12-29T15:23:21;10.50;99.90
18581;DHT22;9420;50.876;7.012;2022-12-29T15:25:52;10.40;99.90
18581;DHT22;9420;50.876;7.012;2022-12-29T15:28:22;10.30;99.90
18581;DHT22;9420;50.876;7.012;2022-12-29T15:30:51;10.40;99.90
18581;DHT22;9420;50.876;7.012;2022-12-29T15:33:22;10.40;99.90
18581;DHT22;9420;50.876;7.012;2022-12-29T15:35:54;10.20;99.90
18581;DHT22;9420;50.876;7.012;2022-12-29T15:38:24;10.00;99.90
18581;DHT22;9420;50.876;7.012;2022-12-29T15:40:55;9.80;99.90
18581;DHT22;9420;50.876;7.012;2022-12-29T15:43:47;9.80;99.90
18581;DHT22;9420;50.876;7.012;2022-12-29T15:46:20;9.80;99.90
18581;DHT22;9420;50.876;7.012;2022-12-29T15:48:47;9.70;99.90
18581;DHT22;9420;50.876;7.012;2022-12-29T15:51:19;9.90;99.90
18581;DHT22;9420;50.876;7.012;2022-12-29T15:53:51;10.10;99.90
18581;DHT22;9420;50.876;7.012;2022-12-29T15:56:19;10.10;99.90
18581;DHT22;9420;50.876;7.012;2022-12-29T15:58:48;10.10;99.90
18581;DHT22;9420;50.876;7.012;2022-12-29T16:01:24;10.00;99.90
18581;DHT22;9420;50.876;7.012;2022-12-29T16:03:55;10.00;99.90
18581;DHT22;9420;50.876;7.012;2022-12-29T16:06:29;10.10;99.90
18581;DHT22;9420;50.876;7.012;2022-12-29T16:09:03;10.20;99.90
18581;DHT22;9420;50.876;7.012;2022-12-29T16:11:34;10.10;99.90
18581;DHT22;9420;50.876;7.012;2022-12-29T16:14:07;10.10;99.90
18581;DHT22;9420;50.876;7.012;2022-12-29T16:16:38;10.20;99.90
18581;DHT22;9420;50.876;7.012;2022-12-29T16:19:12;10.10;99.90
18581;DHT22;9420;50.876;7.012;2022-12-29T16:21:45;10.10;99.90
18581;DHT22;9420;50.876;7.012;2022-12-29T16:24:16;10.10;99.90
18581;DHT22;9420;50.876;7.012;2022-12-29T16:26:47;9.90;99.90
18581;DHT22;9420;50.876;7.012;2022-12-29T16:29:16;9.70;99.90
18581;DHT22;9420;50.876;7.012;2022-12-29T16:31:51;9.40;99.90
18581;DHT22;9420;50.876;7.012;2022-12-29T16:34:29;9.30;99.90
18581;DHT22;9420;50.876;7.012;2022-12-29T16:36:58;9.20;99.90
18581;DHT22;9420;50.876;7.012;2022-12-29T16:39:33;9.00;99.90
18581;DHT22;9420;50.876;7.012;2022-12-29T16:42:33;9.00;99.90
18581;DHT22;9420;50.876;7.012;2022-12-29T16:45:41;9.00;99.90
18581;DHT22;9420;50.876;7.012;2022-12-29T16:48:50;9.30;99.90